Long Grove, Illinois
Current Conditions -  °F | °C
As of 2:52 AM on Friday 19 Dec 2014 (Local Time) from KPWK Reporting Station
Overcast Overcast  
Wind Chill: 22°   Ceiling: 2500
Heat Index: 28°   Visibility: 9mi
Dew Point: 23°   Wind: 6mph
Humidity: 81%   Direction: 340°NNW
Pressure: 30.29"   Gusts: NA
Location:  42.18°N, 88°W
Report Text: KPWK 190852Z AUTO 34005KT 9SM OVC025 M02/M05 A3029 RMK AO2 SLP265 T10221050 53002
Loading
Personal Weather Stations






























Interactive Weather Map New forecast layout! Learn more

10-Day Weather Forecast

Advertisements
Track Severe Weather on mobile